Bluefin — WDE9397 — position and weather

sailwx.info

Track history (hours):
 
Tides and Currents Weather Stations Pressure Air Temp Water Temp Dewpoint Dewpoint Depression Visibility Wind Speed Wind Dir Waves Ship Positions

Bluefin

Owner: Penn Maritime Inc., SEATTLE, WA. More information available from US FCC via Universal Licensing System and Coast Guard Vessel Documentation Center.

Last reported at 2015-May-22 22:05 UTC. Time now 2015-May-22 23:47 UTC.
Position N 39°35' W 075°33'.

Length 166 m; draft 4.5 m.

Type: Towing. MMSI: 367416750.

Date/timePositionNaut miles runAvg speedWind from/ knotsBaromVisibWave heightAir tempDewpointWater temp
2015-May-22 22:05N 39°35' W 075°33'6 8.2
2015-May-22 21:18N 39°41' W 075°31'9 8.7
2015-May-22 20:19N 39°48' W 075°25'6 7.9
2015-May-22 19:33N 39°51' W 075°18'4 3.7
2015-May-22 18:33N 39°51' W 075°14'0 0.0
2015-May-22 17:33N 39°51' W 075°14'0 0.0
2015-May-22 16:33N 39°51' W 075°14'0 0.0
2015-May-22 15:33N 39°51' W 075°14'0 0.0
2015-May-22 14:33N 39°51' W 075°14'0 0.0
2015-May-22 13:33N 39°51' W 075°14'0 0.0
2015-May-22 12:33N 39°51' W 075°14'0 0.0
2015-May-22 11:33N 39°51' W 075°14'0 0.0
2015-May-22 10:33N 39°51' W 075°14'0 0.0
2015-May-22 09:33N 39°51' W 075°14'0 0.0
2015-May-22 08:33N 39°51' W 075°14'0 0.0
2015-May-22 07:33N 39°51' W 075°14'0 0.0
2015-May-22 06:33N 39°51' W 075°14'0 0.0
2015-May-22 05:33N 39°51' W 075°14'0 0.0
2015-May-22 04:33N 39°51' W 075°14'0 0.0
2015-May-22 03:33N 39°51' W 075°14'0 0.0
2015-May-22 02:33N 39°51' W 075°14'0 0.0
2015-May-22 01:33N 39°51' W 075°14'0 0.0
2015-May-22 00:33N 39°51' W 075°14'0 0.0
2015-May-21 23:33N 39°51' W 075°14'0 0.0
2015-May-21 22:33N 39°51' W 075°14'0 0.2
2015-May-21 21:33N 39°51' W 075°14'0 0.1
2015-May-21 20:33N 39°51' W 075°14'0 0.0
2015-May-21 19:30N 39°51' W 075°14'0 0.0
2015-May-21 18:33N 39°52' W 075°14'0 0.0
2015-May-21 17:33N 39°52' W 075°14'0 0.0
2015-May-21 16:33N 39°52' W 075°14'0 0.2
2015-May-21 15:33N 39°51' W 075°14'3 2.6
2015-May-21 14:31N 39°54' W 075°12'0 0.0
2015-May-21 13:31N 39°54' W 075°12'0 0.0
2015-May-21 12:31N 39°54' W 075°12'0 0.0
2015-May-21 11:31N 39°54' W 075°12'2 2.2
2015-May-21 10:34N 39°52' W 075°13'1 0.6
2015-May-21 09:31N 39°51' W 075°14'0 0.1
2015-May-21 08:31N 39°51' W 075°14'0 0.0
2015-May-21 07:31N 39°51' W 075°14'0 0.0
2015-May-21 06:31N 39°51' W 075°14'0 0.0
2015-May-21 05:31N 39°51' W 075°14'0 0.0
2015-May-21 04:31N 39°51' W 075°14'0 0.0
2015-May-21 03:31N 39°51' W 075°14'0 0.1
2015-May-21 02:33N 39°51' W 075°14'0 0.0
2015-May-21 01:34N 39°51' W 075°14'0 0.0
2015-May-21 00:34N 39°51' W 075°14'0 0.0
2015-May-20 23:34N 39°51' W 075°14'0 0.0
2015-May-20 22:33N 39°51' W 075°14'0 0.0
2015-May-20 21:34N 39°51' W 075°14'0 0.1
2015-May-20 20:34N 39°51' W 075°14'3 2.7
2015-May-20 19:34N 39°53' W 075°11'0 0.0
2015-May-20 18:33N 39°53' W 075°11'3 2.6
2015-May-20 17:33N 39°52' W 075°14'6 6.4
2015-May-20 16:34N 39°50' W 075°22'1211.7
2015-May-20 15:33N 39°41' W 075°31'1010.5
2015-May-20 14:34N 39°31' W 075°33'1010.4
2015-May-20 13:33N 39°21' W 075°27'1110.6
2015-May-20 12:34N 39°13' W 075°18'1110.7
2015-May-20 11:33N 39°04' W 075°11'1110.7
2015-May-20 10:33N 38°54' W 075°05'1010.1
2015-May-20 09:34N 38°46' W 074°59'24 9.7
2015-May-20 07:07N 38°27' W 074°40'610.4
2015-May-20 06:33N 38°21' W 074°42'23210.6
2015-May-19 08:33N 34°37' W 075°58'1111.0
2015-May-19 07:34N 34°29' W 076°07'1110.9
2015-May-19 06:33N 34°22' W 076°17'2210.8
2015-May-19 04:32N 34°07' W 076°36'22210.9
2015-May-18 08:05N 32°01' W 080°15'810.2
2015-May-18 07:17N 31°59' W 080°24'810.6
2015-May-18 06:34N 31°59' W 080°33'1110.8
2015-May-18 05:33N 31°59' W 080°46'1110.6
2015-May-18 04:33N 32°04' W 080°57'9 9.0
2015-May-18 03:33N 32°07' W 081°07'0 0.1
2015-May-18 02:33N 32°07' W 081°07'0 0.0
2015-May-18 01:34N 32°07' W 081°07'0 0.0
2015-May-18 00:33N 32°07' W 081°07'0 0.0
2015-May-17 23:33N 32°07' W 081°07'0 0.0
2015-May-17 22:33N 32°07' W 081°07'0 0.0
2015-May-17 21:33N 32°07' W 081°07'0 0.0
2015-May-17 20:34N 32°07' W 081°07'0 0.0
2015-May-17 19:34N 32°07' W 081°07'0 0.0
2015-May-17 18:34N 32°07' W 081°07'0 0.0
2015-May-17 17:33N 32°07' W 081°07'0 0.0
2015-May-17 16:34N 32°07' W 081°07'0 0.0
2015-May-17 15:33N 32°07' W 081°07'0 0.0
2015-May-17 14:34N 32°07' W 081°07'2 2.2
2015-May-17 13:33N 32°05' W 081°06'7 7.3
2015-May-17 12:33N 32°04' W 080°57'9 9.1
2015-May-17 11:33N 32°00' W 080°47'9 9.0
2015-May-17 10:33N 31°59' W 080°37'  
2015-May-13 20:33N 38°28' W 074°45'9 9.2
2015-May-13 19:33N 38°36' W 074°52'9 9.4
2015-May-13 18:33N 38°43' W 074°59'9 9.4
2015-May-13 17:33N 38°52' W 075°04'10 9.5
2015-May-13 16:33N 39°01' W 075°09'1111.0
2015-May-13 15:33N 39°10' W 075°16'1212.0
2015-May-13 14:33N 39°20' W 075°25'1110.9
2015-May-13 13:33N 39°28' W 075°34'9 9.2
2015-May-13 12:33N 39°37' W 075°35'8 7.8
2015-May-13 11:33N 39°44' W 075°30'8 7.8
2015-May-13 10:33N 39°50' W 075°23'7 6.7
2015-May-13 09:31N 39°51' W 075°14'0 0.0
2015-May-13 08:31N 39°51' W 075°14'0 0.0
2015-May-13 07:31N 39°51' W 075°14'0 0.0
2015-May-13 06:31N 39°51' W 075°14'0 0.0
2015-May-13 05:31N 39°51' W 075°14'0 0.0
2015-May-13 04:31N 39°51' W 075°14'0 0.0
2015-May-13 03:31N 39°51' W 075°14'0 0.0
2015-May-13 02:31N 39°51' W 075°14'0 0.0
2015-May-13 01:31N 39°51' W 075°14'0 0.0
2015-May-13 00:31N 39°51' W 075°14'0 0.0
2015-May-12 23:31N 39°51' W 075°14'0 0.0
2015-May-12 22:31N 39°51' W 075°14'  
Track history (hours):
 
Tides and Currents Weather Stations Pressure Air Temp Water Temp Dewpoint Dewpoint Depression Visibility Wind Speed Wind Dir Waves Ship Positions

Bluefin

Owner: Penn Maritime Inc., SEATTLE, WA. More information available from US FCC via Universal Licensing System and Coast Guard Vessel Documentation Center.

Last reported at 2015-May-22 22:05 UTC. Time now 2015-May-22 23:47 UTC.
Position N 39°35' W 075°33'.

Length 166 m; draft 4.5 m.

Type: Towing. MMSI: 367416750.

Date/timePositionNaut miles runAvg speedWind from/ knotsBaromVisibWave heightAir tempDewpointWater temp
2015-May-22 22:05N 39°35' W 075°33'6 8.2
2015-May-22 21:18N 39°41' W 075°31'9 8.7
2015-May-22 20:19N 39°48' W 075°25'6 7.9
2015-May-22 19:33N 39°51' W 075°18'4 3.7
2015-May-22 18:33N 39°51' W 075°14'0 0.0
2015-May-22 17:33N 39°51' W 075°14'0 0.0
2015-May-22 16:33N 39°51' W 075°14'0 0.0
2015-May-22 15:33N 39°51' W 075°14'0 0.0
2015-May-22 14:33N 39°51' W 075°14'0 0.0
2015-May-22 13:33N 39°51' W 075°14'0 0.0
2015-May-22 12:33N 39°51' W 075°14'0 0.0
2015-May-22 11:33N 39°51' W 075°14'0 0.0
2015-May-22 10:33N 39°51' W 075°14'0 0.0
2015-May-22 09:33N 39°51' W 075°14'0 0.0
2015-May-22 08:33N 39°51' W 075°14'0 0.0
2015-May-22 07:33N 39°51' W 075°14'0 0.0
2015-May-22 06:33N 39°51' W 075°14'0 0.0
2015-May-22 05:33N 39°51' W 075°14'0 0.0
2015-May-22 04:33N 39°51' W 075°14'0 0.0
2015-May-22 03:33N 39°51' W 075°14'0 0.0
2015-May-22 02:33N 39°51' W 075°14'0 0.0
2015-May-22 01:33N 39°51' W 075°14'0 0.0
2015-May-22 00:33N 39°51' W 075°14'0 0.0
2015-May-21 23:33N 39°51' W 075°14'0 0.0
2015-May-21 22:33N 39°51' W 075°14'0 0.2
2015-May-21 21:33N 39°51' W 075°14'0 0.1
2015-May-21 20:33N 39°51' W 075°14'0 0.0
2015-May-21 19:30N 39°51' W 075°14'0 0.0
2015-May-21 18:33N 39°52' W 075°14'0 0.0
2015-May-21 17:33N 39°52' W 075°14'0 0.0
2015-May-21 16:33N 39°52' W 075°14'0 0.2
2015-May-21 15:33N 39°51' W 075°14'3 2.6
2015-May-21 14:31N 39°54' W 075°12'0 0.0
2015-May-21 13:31N 39°54' W 075°12'0 0.0
2015-May-21 12:31N 39°54' W 075°12'0 0.0
2015-May-21 11:31N 39°54' W 075°12'2 2.2
2015-May-21 10:34N 39°52' W 075°13'1 0.6
2015-May-21 09:31N 39°51' W 075°14'0 0.1
2015-May-21 08:31N 39°51' W 075°14'0 0.0
2015-May-21 07:31N 39°51' W 075°14'0 0.0
2015-May-21 06:31N 39°51' W 075°14'0 0.0
2015-May-21 05:31N 39°51' W 075°14'0 0.0
2015-May-21 04:31N 39°51' W 075°14'0 0.0
2015-May-21 03:31N 39°51' W 075°14'0 0.1
2015-May-21 02:33N 39°51' W 075°14'0 0.0
2015-May-21 01:34N 39°51' W 075°14'0 0.0
2015-May-21 00:34N 39°51' W 075°14'0 0.0
2015-May-20 23:34N 39°51' W 075°14'0 0.0
2015-May-20 22:33N 39°51' W 075°14'0 0.0
2015-May-20 21:34N 39°51' W 075°14'0 0.1
2015-May-20 20:34N 39°51' W 075°14'3 2.7
2015-May-20 19:34N 39°53' W 075°11'0 0.0
2015-May-20 18:33N 39°53' W 075°11'3 2.6
2015-May-20 17:33N 39°52' W 075°14'6 6.4
2015-May-20 16:34N 39°50' W 075°22'1211.7
2015-May-20 15:33N 39°41' W 075°31'1010.5
2015-May-20 14:34N 39°31' W 075°33'1010.4
2015-May-20 13:33N 39°21' W 075°27'1110.6
2015-May-20 12:34N 39°13' W 075°18'1110.7
2015-May-20 11:33N 39°04' W 075°11'1110.7
2015-May-20 10:33N 38°54' W 075°05'1010.1
2015-May-20 09:34N 38°46' W 074°59'24 9.7
2015-May-20 07:07N 38°27' W 074°40'610.4
2015-May-20 06:33N 38°21' W 074°42'23210.6
2015-May-19 08:33N 34°37' W 075°58'1111.0
2015-May-19 07:34N 34°29' W 076°07'1110.9
2015-May-19 06:33N 34°22' W 076°17'2210.8
2015-May-19 04:32N 34°07' W 076°36'22210.9
2015-May-18 08:05N 32°01' W 080°15'810.2
2015-May-18 07:17N 31°59' W 080°24'810.6
2015-May-18 06:34N 31°59' W 080°33'1110.8
2015-May-18 05:33N 31°59' W 080°46'1110.6
2015-May-18 04:33N 32°04' W 080°57'9 9.0
2015-May-18 03:33N 32°07' W 081°07'0 0.1
2015-May-18 02:33N 32°07' W 081°07'0 0.0
2015-May-18 01:34N 32°07' W 081°07'0 0.0
2015-May-18 00:33N 32°07' W 081°07'0 0.0
2015-May-17 23:33N 32°07' W 081°07'0 0.0
2015-May-17 22:33N 32°07' W 081°07'0 0.0
2015-May-17 21:33N 32°07' W 081°07'0 0.0
2015-May-17 20:34N 32°07' W 081°07'0 0.0
2015-May-17 19:34N 32°07' W 081°07'0 0.0
2015-May-17 18:34N 32°07' W 081°07'0 0.0
2015-May-17 17:33N 32°07' W 081°07'0 0.0
2015-May-17 16:34N 32°07' W 081°07'0 0.0
2015-May-17 15:33N 32°07' W 081°07'0 0.0
2015-May-17 14:34N 32°07' W 081°07'2 2.2
2015-May-17 13:33N 32°05' W 081°06'7 7.3
2015-May-17 12:33N 32°04' W 080°57'9 9.1
2015-May-17 11:33N 32°00' W 080°47'9 9.0
2015-May-17 10:33N 31°59' W 080°37'  
2015-May-13 20:33N 38°28' W 074°45'9 9.2
2015-May-13 19:33N 38°36' W 074°52'9 9.4
2015-May-13 18:33N 38°43' W 074°59'9 9.4
2015-May-13 17:33N 38°52' W 075°04'10 9.5
2015-May-13 16:33N 39°01' W 075°09'1111.0
2015-May-13 15:33N 39°10' W 075°16'1212.0
2015-May-13 14:33N 39°20' W 075°25'1110.9
2015-May-13 13:33N 39°28' W 075°34'9 9.2
2015-May-13 12:33N 39°37' W 075°35'8 7.8
2015-May-13 11:33N 39°44' W 075°30'8 7.8
2015-May-13 10:33N 39°50' W 075°23'7 6.7
2015-May-13 09:31N 39°51' W 075°14'0 0.0
2015-May-13 08:31N 39°51' W 075°14'0 0.0
2015-May-13 07:31N 39°51' W 075°14'0 0.0
2015-May-13 06:31N 39°51' W 075°14'0 0.0
2015-May-13 05:31N 39°51' W 075°14'0 0.0
2015-May-13 04:31N 39°51' W 075°14'0 0.0
2015-May-13 03:31N 39°51' W 075°14'0 0.0
2015-May-13 02:31N 39°51' W 075°14'0 0.0
2015-May-13 01:31N 39°51' W 075°14'0 0.0
2015-May-13 00:31N 39°51' W 075°14'0 0.0
2015-May-12 23:31N 39°51' W 075°14'0 0.0
2015-May-12 22:31N 39°51' W 075°14'  

Dump ship's entire track history